Terminal Aerodrome Forecast
Issued by NWS New Orleans/Baton Rouge, LA

Home | Current Version | Previous Version | Text Only | Print | Product List | Glossary On
Versions: 1 2 3 4 5 6 7 8 9 10 11 12 13 14 15 16 17 18
365
FTUS44 KLIX 070520
TAFBTR
TAF
KBTR 070520Z 0706/0806 06004KT 3SM BR OVC005
     FM071500 VRB03KT P6SM BKN015
     FM071700 VRB03KT P6SM BKN020
     FM072100 VRB03KT P6SM BKN025 PROB30 0800/0803 4SM -SHRA
     FM080300 06004KT P6SM BKN015 PROB30 0803/0806 4SM -SHRA OVC007=

USA.gov is the U.S. government's official web portal to all federal, state and local government web resources and services.